createdAt,value
2023-01-25T00:01:14.353Z,15.73
2023-01-25T00:03:41.122Z,16.77
2023-01-25T00:06:11.053Z,16.07
2023-01-25T00:08:41.010Z,16.73
2023-01-25T00:11:07.808Z,16.40
2023-01-25T00:13:34.567Z,16.17
2023-01-25T00:16:03.751Z,16.90
2023-01-25T00:18:42.344Z,18.67
2023-01-25T00:21:21.628Z,18.03
2023-01-25T00:23:49.408Z,17.13
2023-01-25T00:26:16.908Z,19.17
2023-01-25T00:28:43.872Z,16.63
2023-01-25T00:31:25.846Z,15.93
2023-01-25T00:34:10.745Z,16.60
2023-01-25T00:36:37.483Z,20.17
2023-01-25T00:39:12.572Z,16.10
2023-01-25T00:41:40.531Z,17.30
2023-01-25T00:44:07.913Z,16.80
2023-01-25T00:46:34.645Z,16.43
2023-01-25T00:49:01.420Z,18.67
2023-01-25T00:51:28.308Z,18.33
2023-01-25T00:53:57.783Z,17.77
2023-01-25T00:56:24.657Z,18.63
2023-01-25T00:58:51.448Z,19.30
2023-01-25T01:01:18.433Z,17.07
2023-01-25T01:03:45.319Z,18.23
2023-01-25T01:06:13.034Z,17.93
2023-01-25T01:08:42.253Z,18.37
2023-01-25T01:11:12.455Z,18.27
2023-01-25T01:13:40.208Z,18.07
2023-01-25T01:16:14.189Z,19.70
2023-01-25T01:18:46.409Z,19.13
2023-01-25T01:21:13.898Z,17.63
2023-01-25T01:23:41.431Z,19.23
2023-01-25T01:26:12.127Z,17.83
2023-01-25T01:28:39.604Z,21.50
2023-01-25T01:31:14.628Z,20.93
2023-01-25T01:33:41.642Z,18.23
2023-01-25T01:36:23.285Z,19.10
2023-01-25T01:38:50.307Z,17.53
2023-01-25T01:41:20.973Z,18.73
2023-01-25T01:43:48.313Z,17.77
2023-01-25T01:46:35.854Z,20.87
2023-01-25T01:49:25.026Z,17.93
2023-01-25T01:51:58.723Z,16.63
2023-01-25T01:55:00.256Z,18.50
2023-01-25T01:57:35.516Z,21.30
2023-01-25T02:00:17.325Z,19.87
2023-01-25T02:02:46.225Z,20.40
2023-01-25T02:05:28.562Z,19.50
2023-01-25T02:07:59.921Z,19.90
2023-01-25T02:10:28.499Z,18.37
2023-01-25T02:13:00.981Z,18.97
2023-01-25T02:15:41.680Z,19.23
2023-01-25T02:18:11.032Z,19.00
2023-01-25T02:20:51.498Z,19.50
2023-01-25T02:24:04.743Z,20.13
2023-01-25T02:26:32.058Z,19.13
2023-01-25T02:29:08.416Z,19.63
2023-01-25T02:31:35.326Z,20.17
2023-01-25T02:34:05.337Z,20.27
2023-01-25T02:36:39.530Z,22.67
2023-01-25T02:39:20.008Z,24.20
2023-01-25T02:41:48.090Z,19.00
2023-01-25T02:44:25.427Z,20.27
2023-01-25T02:46:52.346Z,21.57
2023-01-25T02:49:20.219Z,20.50
2023-01-25T02:51:51.842Z,19.40
2023-01-25T02:54:20.810Z,21.30
2023-01-25T02:56:50.759Z,25.13
2023-01-25T02:59:19.017Z,18.73
2023-01-25T03:01:46.151Z,20.97
2023-01-25T03:04:13.496Z,22.43
2023-01-25T03:06:41.186Z,24.67
2023-01-25T03:09:11.173Z,22.77
2023-01-25T03:11:38.049Z,21.50
2023-01-25T03:14:05.354Z,22.47
2023-01-25T03:16:32.598Z,24.93
2023-01-25T03:18:59.623Z,25.60
2023-01-25T03:21:26.866Z,19.97
2023-01-25T03:24:06.239Z,22.47
2023-01-25T03:26:53.027Z,24.37
2023-01-25T03:29:19.764Z,23.90
2023-01-25T03:31:46.548Z,23.20
2023-01-25T03:34:13.326Z,23.87
2023-01-25T03:36:40.117Z,21.30
2023-01-25T03:39:06.846Z,23.13
2023-01-25T03:41:33.533Z,24.00
2023-01-25T03:44:00.248Z,22.83
2023-01-25T03:46:29.681Z,23.90
2023-01-25T03:48:56.428Z,24.73
2023-01-25T03:51:23.129Z,23.67
2023-01-25T03:53:49.937Z,23.43
2023-01-25T03:56:20.153Z,22.23
2023-01-25T03:58:47.354Z,22.10
2023-01-25T04:01:16.885Z,22.97
2023-01-25T04:03:43.827Z,26.07
2023-01-25T04:06:10.630Z,28.80
2023-01-25T04:08:37.618Z,22.87
2023-01-25T04:11:12.324Z,24.13
2023-01-25T04:13:39.799Z,25.33
2023-01-25T04:16:13.580Z,21.50
2023-01-25T04:18:40.752Z,26.97
2023-01-25T04:21:07.604Z,31.50
2023-01-25T04:23:34.442Z,24.73
2023-01-25T04:26:19.441Z,24.70
2023-01-25T04:28:46.267Z,24.77
2023-01-25T04:31:13.135Z,24.03
2023-01-25T04:33:39.890Z,26.03
2023-01-25T04:36:07.301Z,26.00
2023-01-25T04:38:36.643Z,25.77
2023-01-25T04:41:05.235Z,24.97
2023-01-25T04:43:32.034Z,27.20
2023-01-25T04:46:02.715Z,25.20
2023-01-25T04:48:35.232Z,26.90
2023-01-25T04:51:02.024Z,23.87
2023-01-25T04:53:28.736Z,27.53
2023-01-25T04:55:55.475Z,26.60
2023-01-25T04:58:22.300Z,27.70
2023-01-25T05:00:49.254Z,27.83
2023-01-25T05:03:18.196Z,26.50
2023-01-25T05:05:48.298Z,26.47
2023-01-25T05:08:15.196Z,24.80
2023-01-25T05:10:41.918Z,25.73
2023-01-25T05:13:08.761Z,28.57
2023-01-25T05:15:35.501Z,29.00
2023-01-25T05:18:03.480Z,27.03
2023-01-25T05:20:30.390Z,27.83
2023-01-25T05:22:57.151Z,26.03
2023-01-25T05:25:42.649Z,24.87
2023-01-25T05:28:11.583Z,24.70
2023-01-25T05:30:38.377Z,26.27
2023-01-25T05:33:05.259Z,28.40
2023-01-25T05:35:32.521Z,25.57
2023-01-25T05:37:59.921Z,26.97
2023-01-25T05:40:29.281Z,27.67
2023-01-25T05:42:58.338Z,28.47
2023-01-25T05:45:26.181Z,28.43
2023-01-25T05:47:54.810Z,29.70
2023-01-25T05:50:23.422Z,29.30
2023-01-25T05:52:50.625Z,27.73
2023-01-25T05:55:17.787Z,28.57
2023-01-25T05:57:44.520Z,27.60
2023-01-25T06:00:13.434Z,28.63
2023-01-25T06:02:40.534Z,28.13
2023-01-25T06:05:08.631Z,28.23
2023-01-25T06:07:36.757Z,29.10
2023-01-25T06:10:05.652Z,29.03
2023-01-25T06:12:33.073Z,30.07
2023-01-25T06:14:59.877Z,33.67
2023-01-25T06:17:26.724Z,31.33
2023-01-25T06:19:53.507Z,33.20
2023-01-25T06:22:23.286Z,32.60
2023-01-25T06:24:52.336Z,30.70
2023-01-25T06:27:24.658Z,29.47
2023-01-25T06:29:51.394Z,32.03
2023-01-25T06:32:18.269Z,29.27
2023-01-25T06:34:46.243Z,32.43
2023-01-25T06:37:12.945Z,30.57
2023-01-25T06:39:39.656Z,28.93
2023-01-25T06:42:06.346Z,28.40
2023-01-25T06:44:33.166Z,29.70
2023-01-25T06:46:59.972Z,29.03
2023-01-25T06:49:26.783Z,30.63
2023-01-25T06:51:53.662Z,32.83
2023-01-25T06:54:20.527Z,32.53
2023-01-25T06:56:47.310Z,30.57
2023-01-25T06:59:18.325Z,30.73
2023-01-25T07:01:48.304Z,31.80
2023-01-25T07:04:15.141Z,34.23
2023-01-25T07:06:41.955Z,44.20
2023-01-25T07:09:13.868Z,40.13
2023-01-25T07:11:42.698Z,36.23
2023-01-25T07:14:09.477Z,36.67
2023-01-25T07:16:39.378Z,36.03
2023-01-25T07:19:13.267Z,31.97
2023-01-25T07:21:43.405Z,34.07
2023-01-25T07:24:18.790Z,35.03
2023-01-25T07:26:47.551Z,33.07
2023-01-25T07:29:17.082Z,38.87
2023-01-25T07:31:43.881Z,36.93
2023-01-25T07:34:13.192Z,36.43
2023-01-25T07:36:41.417Z,34.90
2023-01-25T07:39:10.474Z,41.83
2023-01-25T07:41:37.809Z,38.77
2023-01-25T07:44:04.706Z,37.60
2023-01-25T07:46:31.556Z,35.17
2023-01-25T07:49:01.455Z,36.83
2023-01-25T07:51:32.389Z,35.40
2023-01-25T07:54:03.712Z,35.60
2023-01-25T07:56:34.679Z,41.47
2023-01-25T07:59:02.798Z,39.63
2023-01-25T08:01:34.680Z,35.37
2023-01-25T08:04:03.156Z,39.90
2023-01-25T08:06:36.246Z,39.97
2023-01-25T08:09:15.897Z,40.83
2023-01-25T08:11:43.311Z,41.57
2023-01-25T08:14:11.370Z,39.60
2023-01-25T08:16:38.229Z,40.87
2023-01-25T08:19:05.103Z,36.30
2023-01-25T08:21:34.884Z,38.47
2023-01-25T08:24:05.712Z,37.17
2023-01-25T08:26:34.576Z,39.03
2023-01-25T08:29:01.389Z,37.93
2023-01-25T08:31:32.822Z,36.63
2023-01-25T08:34:04.170Z,36.80
2023-01-25T08:36:31.397Z,33.17
2023-01-25T08:39:05.894Z,38.63
2023-01-25T08:41:34.741Z,39.90
2023-01-25T08:44:01.852Z,40.93
2023-01-25T08:46:33.002Z,44.47
2023-01-25T08:49:01.921Z,40.60
2023-01-25T08:51:29.573Z,41.00
2023-01-25T08:53:56.287Z,37.80
2023-01-25T08:56:23.318Z,41.10
2023-01-25T08:58:50.895Z,37.63
2023-01-25T09:01:19.289Z,39.83
2023-01-25T09:03:49.280Z,45.17
2023-01-25T09:06:17.602Z,42.10
2023-01-25T09:08:44.518Z,41.00
2023-01-25T09:11:15.776Z,40.10
2023-01-25T09:13:43.699Z,38.43
2023-01-25T09:16:14.572Z,39.20
2023-01-25T09:18:44.306Z,39.37
2023-01-25T09:21:15.476Z,40.40
2023-01-25T09:24:05.568Z,39.40
2023-01-25T09:26:36.403Z,42.40
2023-01-25T09:29:04.183Z,41.13
2023-01-25T09:31:31.108Z,41.27
2023-01-25T09:33:58.476Z,42.93
2023-01-25T09:36:25.670Z,43.80
2023-01-25T09:38:55.054Z,45.33
2023-01-25T09:41:58.161Z,42.93
2023-01-25T09:44:53.223Z,41.63
2023-01-25T09:47:40.198Z,42.70
2023-01-25T09:50:35.568Z,53.17
2023-01-25T09:53:29.084Z,50.27
2023-01-25T09:56:22.390Z,46.90
2023-01-25T09:58:55.810Z,41.30
2023-01-25T10:01:41.785Z,39.97
2023-01-25T10:04:42.344Z,38.50
2023-01-25T10:07:55.780Z,41.37
2023-01-25T10:10:35.540Z,41.20
2023-01-25T10:13:07.654Z,42.53
2023-01-25T10:15:51.227Z,44.90
2023-01-25T10:18:59.555Z,41.47
2023-01-25T10:22:04.308Z,38.53
2023-01-25T10:24:51.217Z,40.57
2023-01-25T10:28:14.367Z,41.13
2023-01-25T10:30:56.684Z,36.20
2023-01-25T10:33:24.061Z,38.97
2023-01-25T10:35:51.195Z,39.43
2023-01-25T10:38:30.129Z,37.13
2023-01-25T10:41:24.088Z,37.30
2023-01-25T10:44:10.907Z,35.80
2023-01-25T10:46:41.315Z,37.17
2023-01-25T10:49:29.999Z,36.73
2023-01-25T10:51:57.351Z,45.03
2023-01-25T10:54:24.538Z,37.87
2023-01-25T10:56:52.745Z,38.40
2023-01-25T10:59:25.642Z,35.50
2023-01-25T11:01:52.930Z,39.73
2023-01-25T11:04:30.408Z,37.50
2023-01-25T11:06:58.571Z,38.33
2023-01-25T11:09:35.602Z,37.17
2023-01-25T11:12:15.334Z,37.47
2023-01-25T11:14:42.255Z,36.93
2023-01-25T11:17:31.410Z,38.13
2023-01-25T11:20:20.831Z,38.83
2023-01-25T11:22:54.524Z,38.27
2023-01-25T11:25:33.600Z,42.67
2023-01-25T11:28:28.990Z,40.23
2023-01-25T11:30:55.943Z,37.70
2023-01-25T11:33:22.955Z,36.73
2023-01-25T11:36:22.698Z,35.43
2023-01-25T11:39:01.847Z,36.93
2023-01-25T11:41:59.320Z,37.47
2023-01-25T11:45:02.843Z,45.57
2023-01-25T11:48:27.975Z,41.00
2023-01-25T11:51:29.109Z,35.37
2023-01-25T11:54:28.549Z,39.20
2023-01-25T11:57:10.005Z,38.03
2023-01-25T12:00:03.619Z,45.67
2023-01-25T12:03:19.543Z,37.47
2023-01-25T12:06:13.581Z,36.90
2023-01-25T12:08:58.173Z,40.67
2023-01-25T12:11:52.596Z,36.20
2023-01-25T12:14:41.245Z,36.33
2023-01-25T12:17:38.132Z,35.97
2023-01-25T12:20:59.755Z,37.30
2023-01-25T12:24:07.297Z,38.37
2023-01-25T12:27:26.042Z,36.77
2023-01-25T12:30:27.153Z,41.00
2023-01-25T12:33:13.929Z,34.50
2023-01-25T12:36:06.385Z,39.40
2023-01-25T12:39:10.599Z,44.37
2023-01-25T12:41:52.020Z,50.17
2023-01-25T12:44:38.984Z,53.47
2023-01-25T12:47:28.287Z,44.67
2023-01-25T12:50:25.346Z,41.87
2023-01-25T12:52:59.520Z,51.87
2023-01-25T12:55:27.733Z,58.07
2023-01-25T12:58:37.510Z,44.03
2023-01-25T13:01:35.688Z,42.60
2023-01-25T13:04:34.530Z,44.50
2023-01-25T13:07:17.374Z,40.77
2023-01-25T13:10:12.955Z,40.53
2023-01-25T13:12:55.072Z,37.80
2023-01-25T13:15:44.376Z,41.70
2023-01-25T13:18:39.331Z,44.80
2023-01-25T13:21:31.369Z,52.00
2023-01-25T13:24:30.167Z,56.83
2023-01-25T13:27:23.714Z,47.23
2023-01-25T13:30:27.791Z,44.53
2023-01-25T13:33:03.574Z,37.33
2023-01-25T13:35:37.318Z,40.00
2023-01-25T13:38:26.321Z,49.77
2023-01-25T13:41:12.040Z,40.43
2023-01-25T13:43:42.258Z,44.63
2023-01-25T13:46:14.605Z,43.97
2023-01-25T13:48:58.942Z,47.57
2023-01-25T13:51:31.730Z,44.73
2023-01-25T13:54:02.886Z,44.57
2023-01-25T13:56:34.624Z,41.13
2023-01-25T13:59:02.035Z,42.50
2023-01-25T14:01:36.880Z,42.73
2023-01-25T14:04:05.241Z,46.93
2023-01-25T14:06:39.463Z,44.53
2023-01-25T14:09:17.313Z,48.13
2023-01-25T14:11:57.620Z,45.20
2023-01-25T14:14:35.182Z,42.47
2023-01-25T14:17:23.531Z,41.53
2023-01-25T14:19:59.597Z,46.53
2023-01-25T14:22:29.789Z,47.63
2023-01-25T14:25:17.325Z,46.00
2023-01-25T14:27:48.942Z,45.13
2023-01-25T14:30:27.189Z,45.13
2023-01-25T14:32:58.910Z,47.77
2023-01-25T14:35:42.976Z,46.43
2023-01-25T14:38:31.873Z,44.83
2023-01-25T14:41:14.631Z,40.13
2023-01-25T14:43:45.533Z,44.13
2023-01-25T14:46:34.674Z,41.30
2023-01-25T14:49:26.201Z,42.47
2023-01-25T14:52:14.523Z,38.33
2023-01-25T14:54:58.098Z,40.77
2023-01-25T14:57:35.277Z,49.53
2023-01-25T15:00:07.238Z,46.50
2023-01-25T15:02:58.813Z,46.33
2023-01-25T15:05:33.258Z,45.57
2023-01-25T15:08:09.123Z,47.30
2023-01-25T15:10:50.653Z,46.70
2023-01-25T15:13:19.904Z,46.43
2023-01-25T15:16:01.218Z,41.77
2023-01-25T15:18:57.476Z,45.53
2023-01-25T15:21:33.018Z,48.87
2023-01-25T15:24:06.736Z,54.13
2023-01-25T15:26:36.097Z,49.90
2023-01-25T15:29:14.495Z,49.33
2023-01-25T15:31:42.505Z,55.23
2023-01-25T15:34:30.230Z,52.73
2023-01-25T15:36:59.385Z,52.47
2023-01-25T15:39:27.376Z,53.40
2023-01-25T15:41:54.115Z,51.37
2023-01-25T15:44:26.439Z,54.17
2023-01-25T15:46:53.646Z,58.07
2023-01-25T15:49:27.845Z,51.17
2023-01-25T15:51:56.302Z,49.57
2023-01-25T15:54:26.536Z,50.93
2023-01-25T15:56:58.788Z,51.77
2023-01-25T15:59:27.042Z,52.50
2023-01-25T16:02:00.018Z,91.77
2023-01-25T16:04:26.802Z,63.27
2023-01-25T16:06:55.276Z,54.50
2023-01-25T16:09:26.867Z,52.80
2023-01-25T16:11:58.848Z,50.17
2023-01-25T16:14:29.937Z,57.03
2023-01-25T16:17:05.298Z,53.53
2023-01-25T16:19:33.575Z,57.80
2023-01-25T16:22:00.634Z,55.73
2023-01-25T16:24:27.704Z,52.97
2023-01-25T16:26:58.220Z,57.93
2023-01-25T16:29:25.673Z,48.37
2023-01-25T16:31:53.858Z,49.60
2023-01-25T16:34:21.852Z,53.97
2023-01-25T16:36:57.509Z,51.67
2023-01-25T16:39:28.131Z,51.83
2023-01-25T16:41:57.447Z,55.17
2023-01-25T16:44:25.541Z,51.63
2023-01-25T16:46:56.344Z,48.60
2023-01-25T16:49:30.356Z,52.83
2023-01-25T16:51:58.454Z,50.67
2023-01-25T16:54:26.684Z,49.07
2023-01-25T16:56:55.034Z,51.83
2023-01-25T16:59:23.980Z,52.30
2023-01-25T17:01:50.917Z,55.03
2023-01-25T17:04:18.786Z,52.93
2023-01-25T17:06:49.985Z,52.70
2023-01-25T17:09:24.120Z,50.37
2023-01-25T17:11:55.975Z,49.90
2023-01-25T17:14:23.872Z,47.47
2023-01-25T17:16:54.403Z,47.83
2023-01-25T17:19:21.357Z,50.83
2023-01-25T17:21:51.476Z,47.77
2023-01-25T17:24:21.587Z,45.50
2023-01-25T17:26:49.147Z,48.83
2023-01-25T17:29:18.777Z,46.03
2023-01-25T17:31:48.580Z,47.40
2023-01-25T17:34:21.896Z,47.10
2023-01-25T17:36:51.708Z,45.60
2023-01-25T17:39:22.574Z,42.77
2023-01-25T17:41:51.783Z,44.17
2023-01-25T17:44:22.542Z,44.37
2023-01-25T17:46:52.621Z,46.13
2023-01-25T17:49:22.633Z,50.43
2023-01-25T17:51:49.473Z,43.17
2023-01-25T17:54:16.422Z,45.73
2023-01-25T17:56:44.956Z,47.43
2023-01-25T17:59:11.928Z,48.30
2023-01-25T18:01:42.381Z,50.93
2023-01-25T18:04:09.892Z,49.13
2023-01-25T18:06:37.252Z,57.53
2023-01-25T18:09:06.497Z,49.00
2023-01-25T18:11:35.477Z,54.33
2023-01-25T18:14:10.667Z,60.77
2023-01-25T18:16:40.592Z,58.67
2023-01-25T18:19:08.157Z,61.93
2023-01-25T18:21:36.497Z,63.27
2023-01-25T18:24:22.160Z,60.87
2023-01-25T18:26:50.815Z,64.13
2023-01-25T18:29:17.600Z,58.67
2023-01-25T18:31:45.026Z,58.67
2023-01-25T18:34:11.922Z,67.17
2023-01-25T18:36:41.159Z,66.50
2023-01-25T18:39:08.943Z,67.00
2023-01-25T18:41:35.721Z,70.70
2023-01-25T18:44:02.480Z,69.03
2023-01-25T18:46:29.308Z,68.37
2023-01-25T18:48:56.386Z,67.53
2023-01-25T18:51:26.672Z,71.23
2023-01-25T18:53:54.438Z,82.47
2023-01-25T18:56:21.965Z,76.30
2023-01-25T18:58:50.981Z,66.60
2023-01-25T19:01:21.171Z,69.57
2023-01-25T19:03:50.167Z,64.10
2023-01-25T19:06:20.295Z,67.73
2023-01-25T19:08:49.693Z,63.03
2023-01-25T19:11:20.200Z,69.57
2023-01-25T19:13:47.449Z,66.87
2023-01-25T19:16:21.089Z,68.63
2023-01-25T19:18:52.010Z,61.23
2023-01-25T19:21:25.857Z,66.23
2023-01-25T19:23:54.367Z,65.33
2023-01-25T19:26:24.436Z,73.00
2023-01-25T19:28:52.862Z,59.17
2023-01-25T19:31:23.514Z,66.87
2023-01-25T19:33:57.255Z,70.10
2023-01-25T19:36:29.597Z,64.60
2023-01-25T19:39:01.954Z,59.77
2023-01-25T19:41:31.328Z,60.83
2023-01-25T19:44:01.150Z,71.20
2023-01-25T19:46:33.160Z,71.83
2023-01-25T19:49:02.038Z,67.90
2023-01-25T19:51:32.542Z,69.30
2023-01-25T19:54:05.803Z,68.20
2023-01-25T19:56:36.626Z,70.07
2023-01-25T19:59:06.394Z,65.73
2023-01-25T20:01:36.480Z,73.47
2023-01-25T20:04:05.941Z,68.77
2023-01-25T20:06:33.223Z,68.37
2023-01-25T20:09:00.030Z,75.93
2023-01-25T20:11:39.618Z,66.47
2023-01-25T20:14:07.389Z,70.93
2023-01-25T20:16:37.305Z,70.73
2023-01-25T20:19:04.403Z,75.73
2023-01-25T20:21:33.478Z,71.70
2023-01-25T20:24:04.910Z,68.90
2023-01-25T20:26:42.530Z,70.67
2023-01-25T20:29:11.550Z,65.20
2023-01-25T20:31:45.279Z,69.47
2023-01-25T20:34:18.838Z,63.17
2023-01-25T20:36:46.798Z,65.23
2023-01-25T20:39:18.074Z,69.07
2023-01-25T20:41:47.297Z,66.50
2023-01-25T20:44:17.804Z,66.00
2023-01-25T20:46:47.986Z,65.13
2023-01-25T20:49:18.926Z,70.23
2023-01-25T20:51:47.015Z,64.77
2023-01-25T20:54:15.676Z,67.00
2023-01-25T20:56:43.058Z,71.47
2023-01-25T20:59:10.324Z,64.83
2023-01-25T21:01:37.589Z,73.43
2023-01-25T21:04:07.709Z,64.50
2023-01-25T21:06:35.235Z,68.53
2023-01-25T21:09:02.888Z,71.50
2023-01-25T21:11:29.794Z,69.07
2023-01-25T21:13:57.054Z,70.63
2023-01-25T21:16:24.383Z,70.57
2023-01-25T21:19:00.175Z,74.67
2023-01-25T21:21:32.531Z,65.13
2023-01-25T21:24:02.387Z,74.57
2023-01-25T21:26:33.120Z,65.20
2023-01-25T21:29:04.406Z,61.67
2023-01-25T21:31:38.025Z,66.03
2023-01-25T21:34:10.537Z,63.70
2023-01-25T21:36:39.808Z,64.70
2023-01-25T21:39:06.644Z,65.67
2023-01-25T21:41:34.136Z,60.67
2023-01-25T21:44:23.009Z,65.13
2023-01-25T21:47:16.224Z,66.67
2023-01-25T21:49:55.792Z,59.47
2023-01-25T21:52:22.534Z,59.17
2023-01-25T21:54:49.276Z,55.00
2023-01-25T21:57:16.180Z,61.10
2023-01-25T21:59:43.001Z,64.00
2023-01-25T22:02:14.752Z,63.37
2023-01-25T22:04:44.067Z,60.50
2023-01-25T22:07:11.699Z,64.30
2023-01-25T22:09:38.679Z,62.90
2023-01-25T22:12:05.626Z,68.07
2023-01-25T22:14:35.080Z,63.57
2023-01-25T22:17:05.422Z,64.87
2023-01-25T22:19:33.271Z,65.00
2023-01-25T22:22:00.185Z,60.37
2023-01-25T22:24:27.003Z,64.17
2023-01-25T22:27:16.957Z,62.57
2023-01-25T22:29:43.682Z,61.53
2023-01-25T22:32:13.539Z,70.63
2023-01-25T22:34:40.297Z,72.77
2023-01-25T22:37:07.098Z,77.83
2023-01-25T22:39:33.833Z,70.73
2023-01-25T22:42:00.530Z,66.97
2023-01-25T22:44:27.292Z,81.80
2023-01-25T22:46:54.077Z,75.57
2023-01-25T22:49:23.370Z,74.83
2023-01-25T22:51:50.151Z,80.90
2023-01-25T22:54:17.080Z,77.37
2023-01-25T22:56:43.870Z,81.93
2023-01-25T22:59:14.744Z,84.63
2023-01-25T23:01:44.731Z,78.10
2023-01-25T23:04:11.585Z,91.13
2023-01-25T23:06:38.720Z,80.20
2023-01-25T23:09:06.951Z,90.87
2023-01-25T23:11:38.277Z,88.73
2023-01-25T23:14:33.160Z,85.97
2023-01-25T23:17:18.385Z,88.30
2023-01-25T23:19:45.268Z,88.90
2023-01-25T23:22:15.124Z,88.47
2023-01-25T23:24:43.218Z,86.27
2023-01-25T23:27:10.046Z,85.10
2023-01-25T23:29:37.245Z,90.17
2023-01-25T23:32:04.146Z,85.83
2023-01-25T23:34:34.717Z,82.97
2023-01-25T23:37:01.529Z,80.63
2023-01-25T23:39:28.321Z,88.10
2023-01-25T23:41:57.614Z,88.17
2023-01-25T23:44:27.444Z,90.97
2023-01-25T23:46:54.238Z,86.23
2023-01-25T23:49:21.058Z,93.33
2023-01-25T23:51:47.915Z,90.37
2023-01-25T23:54:23.177Z,90.27
2023-01-25T23:56:49.917Z,89.27
2023-01-25T23:59:16.695Z,87.40
